Terminal Aerodrome Forecast
Issued by NWS Charleston, WV

Current Version | Previous Version | Graphics & Text | Print | Product List | Glossary On
Versions: 1 2 3 4 5 6 7 8 9 10 11 12 13 14 15 16 17 18 19 20 21 22 23 24 25
374
FTUS41 KRLX 232047 AAA
TAFEKN
TAF AMD
KEKN 232047Z 2321/2418 27007KT P6SM BKN045 BKN060 BKN080
     FM240900 18006KT 5SM BR SCT150
     FM241300 18006KT P6SM SCT200=

USA.gov is the U.S. government's official web portal to all federal, state and local government web resources and services.